createdAt,value
2022-11-14T00:01:21.240Z,6.16
2022-11-14T00:03:52.267Z,6.40
2022-11-14T00:06:20.358Z,5.96
2022-11-14T00:08:48.462Z,6.07
2022-11-14T00:11:16.909Z,6.08
2022-11-14T00:13:45.298Z,5.99
2022-11-14T00:16:13.576Z,6.13
2022-11-14T00:18:41.805Z,6.10
2022-11-14T00:21:11.646Z,6.42
2022-11-14T00:23:39.688Z,5.85
2022-11-14T00:26:08.081Z,5.96
2022-11-14T00:28:36.525Z,5.94
2022-11-14T00:31:04.649Z,6.11
2022-11-14T00:33:33.130Z,6.17
2022-11-14T00:36:01.242Z,6.02
2022-11-14T00:38:31.322Z,6.25
2022-11-14T00:40:59.552Z,5.72
2022-11-14T00:43:28.502Z,5.64
2022-11-14T00:45:56.503Z,5.42
2022-11-14T00:48:24.722Z,5.49
2022-11-14T00:50:53.071Z,5.40
2022-11-14T00:53:21.070Z,5.46
2022-11-14T00:55:50.950Z,5.90
2022-11-14T00:58:18.941Z,5.62
2022-11-14T01:00:47.360Z,5.78
2022-11-14T01:03:15.531Z,5.89
2022-11-14T01:05:44.806Z,6.10
2022-11-14T01:08:13.381Z,6.06
2022-11-14T01:10:42.236Z,5.92
2022-11-14T01:13:12.122Z,6.20
2022-11-14T01:15:41.293Z,6.09
2022-11-14T01:18:10.698Z,5.88
2022-11-14T01:20:40.654Z,6.14
2022-11-14T01:23:09.226Z,5.86
2022-11-14T01:25:38.314Z,5.97
2022-11-14T01:28:08.138Z,6.14
2022-11-14T01:30:37.840Z,6.09
2022-11-14T01:33:06.900Z,5.73
2022-11-14T01:35:36.183Z,5.72
2022-11-14T01:38:05.020Z,5.65
2022-11-14T01:40:33.719Z,5.55
2022-11-14T01:43:24.950Z,6.10
2022-11-14T01:45:57.365Z,5.84
2022-11-14T01:48:29.634Z,5.87
2022-11-14T01:51:00.065Z,5.94
2022-11-14T01:53:28.421Z,5.66
2022-11-14T01:55:59.752Z,6.04
2022-11-14T01:58:29.149Z,5.80
2022-11-14T02:00:59.220Z,5.95
2022-11-14T02:03:27.549Z,5.70
2022-11-14T02:05:55.860Z,5.85
2022-11-14T02:08:24.946Z,5.95
2022-11-14T02:10:53.009Z,5.80
2022-11-14T02:13:21.373Z,5.60
2022-11-14T02:15:49.638Z,5.66
2022-11-14T02:18:19.390Z,5.68
2022-11-14T02:20:48.794Z,5.66
2022-11-14T02:23:26.983Z,5.46
2022-11-14T02:25:55.599Z,4.95
2022-11-14T02:28:23.728Z,4.51
2022-11-14T02:30:52.209Z,4.67
2022-11-14T02:33:20.316Z,4.81
2022-11-14T02:35:49.867Z,5.11
2022-11-14T02:38:18.188Z,4.85
2022-11-14T02:40:46.268Z,4.65
2022-11-14T02:43:14.543Z,4.36
2022-11-14T02:45:42.772Z,4.75
2022-11-14T02:48:11.106Z,4.81
2022-11-14T02:50:39.195Z,4.81
2022-11-14T02:53:08.980Z,5.01
2022-11-14T02:55:37.278Z,5.12
2022-11-14T02:58:05.533Z,4.95
2022-11-14T03:00:33.715Z,4.77
2022-11-14T03:03:02.296Z,4.12
2022-11-14T03:05:30.345Z,4.16
2022-11-14T03:07:58.459Z,4.10
2022-11-14T03:10:28.184Z,4.79
2022-11-14T03:12:57.158Z,5.09
2022-11-14T03:15:25.838Z,5.12
2022-11-14T03:17:53.912Z,5.07
2022-11-14T03:20:21.968Z,4.85
2022-11-14T03:22:50.393Z,4.35
2022-11-14T03:25:18.614Z,4.59
2022-11-14T03:27:48.464Z,5.00
2022-11-14T03:30:16.727Z,4.85
2022-11-14T03:32:45.273Z,5.03
2022-11-14T03:35:13.639Z,4.93
2022-11-14T03:37:41.759Z,5.13
2022-11-14T03:40:10.935Z,5.16
2022-11-14T03:42:38.993Z,4.83
2022-11-14T03:45:09.389Z,5.14
2022-11-14T03:47:37.530Z,4.92
2022-11-14T03:50:06.994Z,5.04
2022-11-14T03:52:35.116Z,5.00
2022-11-14T03:55:03.540Z,4.86
2022-11-14T03:57:31.620Z,4.39
2022-11-14T04:00:00.124Z,4.49
2022-11-14T04:02:29.614Z,4.27
2022-11-14T04:04:57.926Z,4.11
2022-11-14T04:07:25.955Z,4.43
2022-11-14T04:09:54.108Z,4.10
2022-11-14T04:12:22.514Z,4.53
2022-11-14T04:14:50.620Z,4.30
2022-11-14T04:17:18.874Z,3.68
2022-11-14T04:19:48.348Z,3.59
2022-11-14T04:22:16.876Z,4.08
2022-11-14T04:24:44.932Z,3.36
2022-11-14T04:27:13.289Z,4.07
2022-11-14T04:29:41.445Z,4.31
2022-11-14T04:32:09.720Z,3.97
2022-11-14T04:34:37.768Z,3.75
2022-11-14T04:37:07.584Z,4.19
2022-11-14T04:39:35.727Z,3.80
2022-11-14T04:42:04.168Z,3.59
2022-11-14T04:44:32.431Z,3.76
2022-11-14T04:47:00.807Z,4.20
2022-11-14T04:49:28.811Z,3.70
2022-11-14T04:51:57.250Z,3.92
2022-11-14T04:54:26.649Z,4.13
2022-11-14T04:56:54.948Z,4.46
2022-11-14T04:59:23.040Z,4.35
2022-11-14T05:01:51.405Z,4.68
2022-11-14T05:04:19.791Z,4.94
2022-11-14T05:06:48.201Z,4.87
2022-11-14T05:09:16.322Z,4.55
2022-11-14T05:11:46.054Z,4.78
2022-11-14T05:14:14.227Z,4.70
2022-11-14T05:16:42.527Z,4.45
2022-11-14T05:19:10.659Z,4.69
2022-11-14T05:21:39.011Z,4.46
2022-11-14T05:24:07.556Z,4.54
2022-11-14T05:26:35.936Z,4.53
2022-11-14T05:29:05.494Z,4.82
2022-11-14T05:31:33.493Z,4.60
2022-11-14T05:34:01.998Z,4.50
2022-11-14T05:36:30.079Z,4.55
2022-11-14T05:38:58.711Z,4.49
2022-11-14T05:41:26.760Z,4.19
2022-11-14T05:43:55.317Z,4.46
2022-11-14T05:46:24.726Z,4.37
2022-11-14T05:48:53.207Z,4.24
2022-11-14T05:51:21.321Z,3.89
2022-11-14T05:53:49.858Z,4.17
2022-11-14T05:56:17.916Z,4.59
2022-11-14T05:58:46.472Z,4.53
2022-11-14T06:01:15.967Z,4.68
2022-11-14T06:03:46.905Z,4.50
2022-11-14T06:06:17.761Z,4.63
2022-11-14T06:08:46.202Z,4.38
2022-11-14T06:11:16.380Z,4.95
2022-11-14T06:13:45.128Z,4.50
2022-11-14T06:16:15.177Z,4.65
2022-11-14T06:18:45.480Z,4.84
2022-11-14T06:21:14.918Z,4.94
2022-11-14T06:23:43.541Z,4.74
2022-11-14T06:26:16.722Z,4.97
2022-11-14T06:28:45.279Z,4.42
2022-11-14T06:31:13.425Z,4.40
2022-11-14T06:33:41.859Z,4.58
2022-11-14T06:36:11.840Z,4.99
2022-11-14T06:38:41.283Z,4.77
2022-11-14T06:41:10.870Z,4.66
2022-11-14T06:43:41.160Z,4.71
2022-11-14T06:46:10.689Z,4.66
2022-11-14T06:48:39.486Z,4.65
2022-11-14T06:51:08.204Z,4.87
2022-11-14T06:53:38.051Z,5.07
2022-11-14T06:56:07.743Z,5.27
2022-11-14T06:58:39.014Z,5.14
2022-11-14T07:01:08.669Z,4.81
2022-11-14T07:03:37.015Z,4.56
2022-11-14T07:06:06.185Z,4.98
2022-11-14T07:08:35.124Z,4.52
2022-11-14T07:11:05.955Z,5.02
2022-11-14T07:13:35.523Z,5.08
2022-11-14T07:16:03.947Z,4.98
2022-11-14T07:18:33.164Z,5.10
2022-11-14T07:21:02.831Z,4.88
2022-11-14T07:23:32.009Z,4.73
2022-11-14T07:26:03.066Z,5.24
2022-11-14T07:28:33.229Z,5.49
2022-11-14T07:31:03.987Z,5.41
2022-11-14T07:33:32.821Z,5.36
2022-11-14T07:36:00.899Z,5.39
2022-11-14T07:38:29.549Z,5.18
2022-11-14T07:41:00.103Z,5.48
2022-11-14T07:43:29.350Z,5.64
2022-11-14T07:46:01.311Z,5.89
2022-11-14T07:48:30.553Z,5.73
2022-11-14T07:51:02.355Z,6.00
2022-11-14T07:53:31.336Z,5.47
2022-11-14T07:56:04.544Z,5.65
2022-11-14T07:58:33.217Z,4.74
2022-11-14T08:01:03.685Z,5.00
2022-11-14T08:03:32.455Z,5.01
2022-11-14T08:06:04.048Z,5.57
2022-11-14T08:08:32.859Z,5.11
2022-11-14T08:11:01.630Z,5.47
2022-11-14T08:13:32.607Z,5.44
2022-11-14T08:16:12.296Z,5.41
2022-11-14T08:18:42.491Z,5.26
2022-11-14T08:21:10.541Z,5.47
2022-11-14T08:23:38.895Z,5.62
2022-11-14T08:26:07.149Z,5.18
2022-11-14T08:28:35.573Z,5.42
2022-11-14T08:31:04.334Z,5.48
2022-11-14T08:33:34.244Z,5.87
2022-11-14T08:36:02.842Z,5.74
2022-11-14T08:38:32.838Z,5.95
2022-11-14T08:41:01.539Z,6.03
2022-11-14T08:43:30.010Z,6.10
2022-11-14T08:46:01.570Z,6.57
2022-11-14T08:48:31.576Z,6.62
2022-11-14T08:51:04.250Z,7.14
2022-11-14T08:53:32.731Z,6.83
2022-11-14T08:56:00.927Z,6.94
2022-11-14T08:58:31.496Z,6.89
2022-11-14T09:01:03.324Z,7.13
2022-11-14T09:03:31.871Z,6.58
2022-11-14T09:06:01.998Z,6.82
2022-11-14T09:08:31.369Z,6.90
2022-11-14T09:11:05.147Z,7.00
2022-11-14T09:13:36.797Z,6.89
2022-11-14T09:16:05.182Z,6.71
2022-11-14T09:18:33.738Z,6.90
2022-11-14T09:21:03.865Z,7.33
2022-11-14T09:23:32.474Z,6.67
2022-11-14T09:26:05.164Z,7.16
2022-11-14T09:28:33.693Z,6.99
2022-11-14T09:31:02.791Z,7.09
2022-11-14T09:33:31.671Z,6.96
2022-11-14T09:36:00.444Z,6.88
2022-11-14T09:38:35.406Z,7.07
2022-11-14T09:41:17.132Z,7.21
2022-11-14T09:43:58.645Z,6.96
2022-11-14T09:46:29.471Z,6.95
2022-11-14T09:48:57.914Z,6.92
2022-11-14T09:51:27.197Z,7.51
2022-11-14T09:54:00.835Z,7.72
2022-11-14T09:56:28.855Z,7.09
2022-11-14T09:58:57.672Z,7.05
2022-11-14T10:01:34.181Z,7.63
2022-11-14T10:04:10.727Z,6.91
2022-11-14T10:06:47.188Z,6.98
2022-11-14T10:09:31.164Z,6.73
2022-11-14T10:12:05.739Z,7.01
2022-11-14T10:15:05.483Z,7.23
2022-11-14T10:17:45.949Z,7.36
2022-11-14T10:20:19.675Z,7.20
2022-11-14T10:23:04.677Z,7.63
2022-11-14T10:25:44.275Z,7.14
2022-11-14T10:28:32.542Z,7.49
2022-11-14T10:31:07.844Z,7.54
2022-11-14T10:33:44.172Z,7.95
2022-11-14T10:36:19.392Z,8.15
2022-11-14T10:38:51.803Z,7.91
2022-11-14T10:41:49.813Z,7.77
2022-11-14T10:44:12.120Z,7.67
2022-11-14T10:46:45.255Z,8.22
2022-11-14T10:49:17.644Z,8.40
2022-11-14T10:51:48.662Z,8.14
2022-11-14T10:54:19.173Z,8.43
2022-11-14T10:56:50.193Z,8.31
2022-11-14T10:59:18.690Z,7.66
2022-11-14T11:01:55.016Z,8.42
2022-11-14T11:04:27.861Z,8.49
2022-11-14T11:06:57.977Z,8.17
2022-11-14T11:09:45.995Z,7.80
2022-11-14T11:12:20.757Z,7.87
2022-11-14T11:14:50.723Z,7.60
2022-11-14T11:17:29.545Z,8.10
2022-11-14T11:20:23.880Z,8.37
2022-11-14T11:23:03.685Z,8.75
2022-11-14T11:25:33.066Z,8.77
2022-11-14T11:28:07.793Z,9.09
2022-11-14T11:30:35.856Z,8.24
2022-11-14T11:33:17.886Z,8.34
2022-11-14T11:35:47.288Z,8.02
2022-11-14T11:38:16.255Z,7.60
2022-11-14T11:40:45.491Z,7.59
2022-11-14T11:46:13.342Z,7.72
2022-11-14T11:48:41.879Z,7.63
2022-11-14T11:51:15.507Z,8.21
2022-11-14T11:53:46.233Z,8.01
2022-11-14T11:56:17.577Z,8.71
2022-11-14T11:58:47.580Z,9.62
2022-11-14T12:01:16.124Z,8.76
2022-11-14T12:03:48.068Z,9.04
2022-11-14T12:06:17.974Z,8.88
2022-11-14T12:08:57.492Z,9.13
2022-11-14T12:11:27.896Z,9.13
2022-11-14T12:14:29.740Z,9.26
2022-11-14T12:17:22.015Z,9.10
2022-11-14T12:20:05.249Z,9.05
2022-11-14T12:22:51.887Z,9.02
2022-11-14T12:25:51.221Z,9.06
2022-11-14T12:28:32.550Z,9.14
2022-11-14T12:31:04.740Z,8.99
2022-11-14T12:33:35.614Z,9.07
2022-11-14T12:36:06.957Z,9.31
2022-11-14T12:38:42.315Z,9.39
2022-11-14T12:41:11.374Z,9.56
2022-11-14T12:43:41.848Z,9.44
2022-11-14T12:46:13.173Z,9.51
2022-11-14T12:48:43.133Z,9.55
2022-11-14T12:51:48.785Z,9.88
2022-11-14T12:54:45.871Z,9.86
2022-11-14T12:57:41.856Z,9.33
2022-11-14T13:00:10.570Z,9.02
2022-11-14T13:03:01.523Z,9.64
2022-11-14T13:05:58.692Z,9.79
2022-11-14T13:08:45.665Z,9.84
2022-11-14T13:11:50.600Z,9.80
2022-11-14T13:14:37.476Z,9.05
2022-11-14T13:17:38.951Z,9.19
2022-11-14T13:20:47.031Z,9.12
2022-11-14T13:23:58.778Z,9.14
2022-11-14T13:26:43.924Z,9.02
2022-11-14T13:30:00.281Z,8.84
2022-11-14T13:32:54.170Z,8.56
2022-11-14T13:35:31.579Z,8.27
2022-11-14T13:38:18.794Z,8.44
2022-11-14T13:40:56.875Z,8.56
2022-11-14T13:43:33.525Z,8.54
2022-11-14T13:46:03.283Z,8.39
2022-11-14T13:48:55.626Z,8.67
2022-11-14T13:54:17.606Z,8.32
2022-11-14T13:56:55.531Z,8.58
2022-11-14T13:59:49.104Z,8.67
2022-11-14T14:02:52.624Z,8.45
2022-11-14T14:05:27.871Z,8.29
2022-11-14T14:08:10.634Z,8.44
2022-11-14T14:10:43.504Z,8.18
2022-11-14T14:13:22.472Z,8.43
2022-11-14T14:16:00.169Z,8.58
2022-11-14T14:18:42.104Z,8.53
2022-11-14T14:21:16.693Z,8.40
2022-11-14T14:23:48.886Z,8.47
2022-11-14T14:26:23.281Z,8.49
2022-11-14T14:28:57.535Z,8.26
2022-11-14T14:31:25.992Z,7.79
2022-11-14T14:33:54.068Z,7.71
2022-11-14T14:36:25.801Z,8.00
2022-11-14T14:39:13.355Z,7.63
2022-11-14T14:41:42.359Z,7.34
2022-11-14T14:44:20.425Z,7.46
2022-11-14T14:46:48.951Z,6.98
2022-11-14T14:49:21.129Z,7.21
2022-11-14T14:51:52.135Z,7.09
2022-11-14T14:54:25.978Z,7.38
2022-11-14T14:56:55.691Z,7.14
2022-11-14T14:59:26.745Z,7.25
2022-11-14T15:01:55.979Z,7.42
2022-11-14T15:04:26.522Z,6.85
2022-11-14T15:06:57.716Z,6.38
2022-11-14T15:09:28.135Z,6.70
2022-11-14T15:11:59.277Z,6.82
2022-11-14T15:14:31.780Z,7.05
2022-11-14T15:17:01.756Z,6.85
2022-11-14T15:19:36.638Z,7.22
2022-11-14T15:22:07.189Z,7.05
2022-11-14T15:24:35.261Z,6.31
2022-11-14T15:27:05.938Z,6.61
2022-11-14T15:29:35.527Z,6.37
2022-11-14T15:32:05.888Z,6.16
2022-11-14T15:34:35.439Z,6.02
2022-11-14T15:37:21.745Z,6.47
2022-11-14T15:39:49.989Z,5.70
2022-11-14T15:42:22.114Z,6.22
2022-11-14T15:44:51.922Z,6.35
2022-11-14T15:47:23.106Z,6.60
2022-11-14T15:49:58.309Z,6.75
2022-11-14T15:52:30.622Z,6.55
2022-11-14T15:54:58.782Z,6.00
2022-11-14T15:57:27.141Z,5.76
2022-11-14T15:59:56.691Z,6.18
2022-11-14T16:02:26.912Z,5.90
2022-11-14T16:04:55.524Z,5.68
2022-11-14T16:07:24.012Z,5.49
2022-11-14T16:09:52.351Z,5.41
2022-11-14T16:12:20.744Z,5.37
2022-11-14T16:14:48.889Z,5.32
2022-11-14T16:17:19.348Z,5.61
2022-11-14T16:19:47.475Z,5.49
2022-11-14T16:22:18.619Z,6.17
2022-11-14T16:24:46.868Z,5.67
2022-11-14T16:27:15.607Z,6.09
2022-11-14T16:29:43.698Z,6.00
2022-11-14T16:32:12.369Z,5.86
2022-11-14T16:34:41.882Z,5.86
2022-11-14T16:37:13.633Z,6.14
2022-11-14T16:39:41.791Z,5.57
2022-11-14T16:42:11.294Z,6.10
2022-11-14T16:44:42.880Z,5.96
2022-11-14T16:47:14.609Z,5.99
2022-11-14T16:49:44.043Z,6.20
2022-11-14T16:52:13.282Z,5.85
2022-11-14T16:54:41.495Z,5.66
2022-11-14T16:57:09.875Z,5.74
2022-11-14T16:59:38.341Z,5.66
2022-11-14T17:02:07.131Z,5.68
2022-11-14T17:04:35.289Z,5.52
2022-11-14T17:07:05.104Z,5.90
2022-11-14T17:09:33.291Z,5.60
2022-11-14T17:12:01.629Z,5.70
2022-11-14T17:14:29.938Z,5.52
2022-11-14T17:17:04.357Z,5.63
2022-11-14T17:19:32.625Z,5.50
2022-11-14T17:22:00.962Z,5.63
2022-11-14T17:24:31.662Z,5.97
2022-11-14T17:27:00.743Z,6.03
2022-11-14T17:29:28.800Z,5.78
2022-11-14T17:31:57.170Z,5.62
2022-11-14T17:34:25.269Z,5.09
2022-11-14T17:36:53.677Z,5.21
2022-11-14T17:39:21.729Z,5.09
2022-11-14T17:41:51.521Z,5.24
2022-11-14T17:44:19.719Z,4.66
2022-11-14T17:46:48.313Z,4.83
2022-11-14T17:49:16.439Z,4.81
2022-11-14T17:51:44.816Z,4.79
2022-11-14T17:54:12.935Z,5.34
2022-11-14T17:56:46.564Z,5.58
2022-11-14T17:59:19.239Z,5.80
2022-11-14T18:01:47.779Z,5.77
2022-11-14T18:04:16.056Z,5.71
2022-11-14T18:06:44.437Z,5.59
2022-11-14T18:09:14.365Z,5.78
2022-11-14T18:11:43.040Z,5.97
2022-11-14T18:14:11.910Z,5.85
2022-11-14T18:17:10.548Z,6.26
2022-11-14T18:19:29.863Z,5.70
2022-11-14T18:21:58.171Z,5.53
2022-11-14T18:24:26.204Z,5.56
2022-11-14T18:26:55.574Z,5.14
2022-11-14T18:29:23.799Z,5.34
2022-11-14T18:31:53.504Z,5.85
2022-11-14T18:34:21.595Z,5.64
2022-11-14T18:36:50.198Z,5.41
2022-11-14T18:39:18.181Z,5.21
2022-11-14T18:41:46.509Z,5.40
2022-11-14T18:44:14.747Z,4.82
2022-11-14T18:46:43.100Z,4.87
2022-11-14T18:49:12.760Z,5.31
2022-11-14T18:51:42.326Z,4.99
2022-11-14T18:54:12.684Z,5.36
2022-11-14T18:56:41.725Z,4.92
2022-11-14T18:59:12.290Z,5.46
2022-11-14T19:01:41.472Z,5.44
2022-11-14T19:04:12.382Z,5.32
2022-11-14T19:06:41.908Z,5.14
2022-11-14T19:09:11.930Z,5.13
2022-11-14T19:11:57.859Z,5.04
2022-11-14T19:14:26.074Z,5.05
2022-11-14T19:16:54.678Z,4.85
2022-11-14T19:19:24.245Z,5.07
2022-11-14T19:21:52.760Z,5.20
2022-11-14T19:24:21.094Z,5.22
2022-11-14T19:26:49.207Z,5.45
2022-11-14T19:29:17.797Z,5.54
2022-11-14T19:31:46.073Z,5.52
2022-11-14T19:34:15.836Z,5.72
2022-11-14T19:36:59.557Z,5.88
2022-11-14T19:39:28.856Z,5.49
2022-11-14T19:41:56.982Z,5.22
2022-11-14T19:44:25.482Z,5.55
2022-11-14T19:46:53.586Z,5.56
2022-11-14T19:49:22.079Z,5.57
2022-11-14T19:51:51.591Z,5.81
2022-11-14T19:54:19.984Z,5.45
2022-11-14T19:56:48.080Z,5.05
2022-11-14T19:59:20.177Z,4.93
2022-11-14T20:02:03.122Z,5.28
2022-11-14T20:04:36.867Z,5.38
2022-11-14T20:07:07.365Z,5.67
2022-11-14T20:09:35.959Z,5.57
2022-11-14T20:12:04.018Z,5.64
2022-11-14T20:14:32.435Z,5.71
2022-11-14T20:17:00.488Z,5.58
2022-11-14T20:19:28.904Z,5.63
2022-11-14T20:21:57.040Z,5.61
2022-11-14T20:24:26.894Z,5.83
2022-11-14T20:26:55.120Z,5.38
2022-11-14T20:29:23.806Z,5.62
2022-11-14T20:31:51.933Z,5.66
2022-11-14T20:34:20.299Z,5.40
2022-11-14T20:39:38.093Z,5.85
2022-11-14T20:42:06.660Z,6.07
2022-11-14T20:44:35.183Z,6.08
2022-11-14T20:47:07.124Z,6.21
2022-11-14T20:49:38.134Z,6.08
2022-11-14T20:52:06.565Z,6.02
2022-11-14T20:54:34.929Z,5.62
2022-11-14T20:57:04.529Z,5.99
2022-11-14T20:59:33.308Z,5.71
2022-11-14T21:02:01.421Z,5.46
2022-11-14T21:04:30.056Z,5.60
2022-11-14T21:06:58.301Z,5.74
2022-11-14T21:09:28.159Z,5.78
2022-11-14T21:11:56.236Z,5.71
2022-11-14T21:14:26.129Z,5.78
2022-11-14T21:16:54.231Z,5.39
2022-11-14T21:19:22.814Z,5.61
2022-11-14T21:21:51.009Z,5.69
2022-11-14T21:24:19.504Z,5.80
2022-11-14T21:26:47.666Z,6.00
2022-11-14T21:29:16.062Z,5.83
2022-11-14T21:31:47.020Z,6.25
2022-11-14T21:34:18.066Z,5.95
2022-11-14T21:36:47.335Z,5.64
2022-11-14T21:39:17.722Z,5.38
2022-11-14T21:41:48.440Z,5.38
2022-11-14T21:44:18.500Z,5.44
2022-11-14T21:46:49.674Z,5.37
2022-11-14T21:49:18.271Z,4.93
2022-11-14T21:51:47.234Z,4.77
2022-11-14T21:54:15.758Z,5.11
2022-11-14T21:56:43.892Z,5.18
2022-11-14T21:59:16.040Z,5.64
2022-11-14T22:02:03.395Z,5.66
2022-11-14T22:04:33.679Z,5.87
2022-11-14T22:07:04.879Z,6.09
2022-11-14T22:09:33.837Z,5.74
2022-11-14T22:12:02.318Z,5.69
2022-11-14T22:14:30.784Z,5.16
2022-11-14T22:16:59.141Z,5.50
2022-11-14T22:19:27.683Z,5.13
2022-11-14T22:21:57.170Z,5.74
2022-11-14T22:24:25.761Z,5.43
2022-11-14T22:26:53.811Z,5.61
2022-11-14T22:29:22.351Z,5.87
2022-11-14T22:31:53.006Z,5.84
2022-11-14T22:34:21.448Z,5.66
2022-11-14T22:36:49.634Z,5.77
2022-11-14T22:39:19.297Z,6.25
2022-11-14T22:41:47.509Z,5.90
2022-11-14T22:44:15.839Z,5.77
2022-11-14T22:46:43.922Z,5.73
2022-11-14T22:49:14.214Z,5.68
2022-11-14T22:51:45.426Z,5.40
2022-11-14T22:54:14.368Z,5.37
2022-11-14T22:56:43.798Z,5.89
2022-11-14T22:59:12.250Z,5.63
2022-11-14T23:01:40.298Z,5.62
2022-11-14T23:04:10.260Z,5.89
2022-11-14T23:06:38.274Z,5.59
2022-11-14T23:09:06.696Z,5.61
2022-11-14T23:11:34.977Z,5.81
2022-11-14T23:14:04.822Z,5.96
2022-11-14T23:16:33.935Z,6.05
2022-11-14T23:19:04.294Z,6.26
2022-11-14T23:21:34.256Z,6.25
2022-11-14T23:24:06.361Z,6.37
2022-11-14T23:26:34.572Z,6.28
2022-11-14T23:29:04.542Z,6.65
2022-11-14T23:31:32.621Z,6.49
2022-11-14T23:34:00.965Z,6.61
2022-11-14T23:36:29.203Z,6.50
2022-11-14T23:38:57.554Z,6.54
2022-11-14T23:41:26.803Z,6.88
2022-11-14T23:43:55.197Z,6.66
2022-11-14T23:46:24.665Z,7.18
2022-11-14T23:48:53.503Z,6.89
2022-11-14T23:51:21.729Z,6.95
2022-11-14T23:53:50.740Z,7.02
2022-11-14T23:56:19.039Z,6.97
2022-11-14T23:58:47.616Z,6.78
